sensor_id;sensor_type;location;lat;lon;timestamp;pressure;altitude;pressure_sealevel;temperature;humidity
60676;BME280;46716;38.014;-7.874;2022-08-19T00:01:47;99796.97;;;22.20;45.01
60676;BME280;46716;38.014;-7.874;2022-08-19T00:03:48;99793.00;;;22.15;44.84
60676;BME280;46716;38.014;-7.874;2022-08-19T00:05:49;99808.84;;;22.18;44.87
60676;BME280;46716;38.014;-7.874;2022-08-19T00:07:50;99795.69;;;22.15;45.17
60676;BME280;46716;38.014;-7.874;2022-08-19T00:09:51;99796.19;;;22.10;45.08
60676;BME280;46716;38.014;-7.874;2022-08-19T00:11:53;99791.25;;;22.05;45.08
60676;BME280;46716;38.014;-7.874;2022-08-19T00:13:56;99800.41;;;22.13;44.96
60676;BME280;46716;38.014;-7.874;2022-08-19T00:15:57;99795.16;;;22.11;44.86
60676;BME280;46716;38.014;-7.874;2022-08-19T00:17:59;99775.25;;;22.04;45.06
60676;BME280;46716;38.014;-7.874;2022-08-19T00:20:00;99788.13;;;22.10;44.97
60676;BME280;46716;38.014;-7.874;2022-08-19T00:22:01;99787.41;;;22.08;44.73
60676;BME280;46716;38.014;-7.874;2022-08-19T00:24:03;99793.16;;;22.13;45.08
60676;BME280;46716;38.014;-7.874;2022-08-19T00:26:04;99790.38;;;22.05;45.14
60676;BME280;46716;38.014;-7.874;2022-08-19T00:28:06;99780.22;;;21.98;44.81
60676;BME280;46716;38.014;-7.874;2022-08-19T00:30:07;99795.03;;;22.03;44.91
60676;BME280;46716;38.014;-7.874;2022-08-19T00:32:10;99793.13;;;21.95;44.84
60676;BME280;46716;38.014;-7.874;2022-08-19T00:34:13;99791.84;;;21.89;45.10
60676;BME280;46716;38.014;-7.874;2022-08-19T00:36:14;99803.88;;;21.95;45.10
60676;BME280;46716;38.014;-7.874;2022-08-19T00:38:15;99792.16;;;21.86;44.89
60676;BME280;46716;38.014;-7.874;2022-08-19T00:40:16;99801.78;;;21.89;44.83
60676;BME280;46716;38.014;-7.874;2022-08-19T00:42:19;99810.13;;;21.85;44.73
60676;BME280;46716;38.014;-7.874;2022-08-19T00:44:23;99780.59;;;21.66;44.53
60676;BME280;46716;38.014;-7.874;2022-08-19T00:46:25;99782.72;;;21.62;45.32
60676;BME280;46716;38.014;-7.874;2022-08-19T00:48:26;99778.09;;;21.54;45.65
60676;BME280;46716;38.014;-7.874;2022-08-19T00:50:27;99796.31;;;21.60;46.21
60676;BME280;46716;38.014;-7.874;2022-08-19T00:52:35;99781.91;;;21.52;46.66
60676;BME280;46716;38.014;-7.874;2022-08-19T00:54:38;99780.78;;;21.44;47.04
60676;BME280;46716;38.014;-7.874;2022-08-19T00:56:39;99772.31;;;21.39;46.90
60676;BME280;46716;38.014;-7.874;2022-08-19T00:58:41;99767.94;;;21.38;46.74
60676;BME280;46716;38.014;-7.874;2022-08-19T01:00:42;99794.63;;;21.50;46.91
60676;BME280;46716;38.014;-7.874;2022-08-19T01:02:43;99789.53;;;21.46;46.63
60676;BME280;46716;38.014;-7.874;2022-08-19T01:04:44;99768.38;;;21.33;46.67
60676;BME280;46716;38.014;-7.874;2022-08-19T01:06:45;99780.81;;;21.34;46.40
60676;BME280;46716;38.014;-7.874;2022-08-19T01:08:46;99769.81;;;21.28;46.37
60676;BME280;46716;38.014;-7.874;2022-08-19T01:10:52;99778.13;;;21.34;47.03
60676;BME280;46716;38.014;-7.874;2022-08-19T01:12:55;99788.72;;;21.36;47.07
60676;BME280;46716;38.014;-7.874;2022-08-19T01:14:58;99784.91;;;21.29;47.11
60676;BME280;46716;38.014;-7.874;2022-08-19T01:17:00;99776.28;;;21.25;47.06
60676;BME280;46716;38.014;-7.874;2022-08-19T01:19:01;99770.91;;;21.25;46.92
60676;BME280;46716;38.014;-7.874;2022-08-19T01:21:09;99772.06;;;21.22;47.24
60676;BME280;46716;38.014;-7.874;2022-08-19T01:23:12;99778.97;;;21.25;47.11
60676;BME280;46716;38.014;-7.874;2022-08-19T01:25:19;99767.69;;;21.21;46.89
60676;BME280;46716;38.014;-7.874;2022-08-19T01:27:21;99776.75;;;21.20;46.54
60676;BME280;46716;38.014;-7.874;2022-08-19T01:29:21;99772.75;;;21.15;46.57
60676;BME280;46716;38.014;-7.874;2022-08-19T01:31:25;99778.00;;;21.16;46.82
60676;BME280;46716;38.014;-7.874;2022-08-19T01:33:26;99787.47;;;21.20;47.27
60676;BME280;46716;38.014;-7.874;2022-08-19T01:35:28;99782.38;;;21.17;47.45
60676;BME280;46716;38.014;-7.874;2022-08-19T01:37:51;99780.69;;;21.16;47.65
60676;BME280;46716;38.014;-7.874;2022-08-19T01:39:53;99778.72;;;21.08;47.94
60676;BME280;46716;38.014;-7.874;2022-08-19T01:41:53;99782.81;;;21.13;47.60
60676;BME280;46716;38.014;-7.874;2022-08-19T01:43:55;99780.28;;;21.11;47.86
60676;BME280;46716;38.014;-7.874;2022-08-19T01:45:56;99778.00;;;21.16;47.68
60676;BME280;46716;38.014;-7.874;2022-08-19T01:47:58;99760.38;;;21.04;48.26
60676;BME280;46716;38.014;-7.874;2022-08-19T01:49:59;99758.50;;;21.04;48.41
60676;BME280;46716;38.014;-7.874;2022-08-19T01:52:00;99770.09;;;21.05;48.25
60676;BME280;46716;38.014;-7.874;2022-08-19T01:54:02;99772.22;;;21.11;48.23
60676;BME280;46716;38.014;-7.874;2022-08-19T01:56:03;99760.38;;;21.04;48.07
60676;BME280;46716;38.014;-7.874;2022-08-19T01:58:05;99759.25;;;20.96;48.10
60676;BME280;46716;38.014;-7.874;2022-08-19T02:00:11;99763.88;;;20.94;48.39
60676;BME280;46716;38.014;-7.874;2022-08-19T02:02:13;99760.22;;;20.95;48.65
60676;BME280;46716;38.014;-7.874;2022-08-19T02:04:14;99751.75;;;20.90;48.29
60676;BME280;46716;38.014;-7.874;2022-08-19T02:06:15;99751.75;;;20.90;48.26
60676;BME280;46716;38.014;-7.874;2022-08-19T02:08:17;99764.59;;;20.96;48.15
60676;BME280;46716;38.014;-7.874;2022-08-19T02:10:20;99761.22;;;20.94;48.51
60676;BME280;46716;38.014;-7.874;2022-08-19T02:12:22;99759.66;;;20.92;48.56
60676;BME280;46716;38.014;-7.874;2022-08-19T02:14:23;99761.03;;;20.86;48.82
60676;BME280;46716;38.014;-7.874;2022-08-19T02:16:24;99752.56;;;20.81;49.01
60676;BME280;46716;38.014;-7.874;2022-08-19T02:18:25;99765.41;;;20.87;49.01
60676;BME280;46716;38.014;-7.874;2022-08-19T02:20:27;99760.75;;;20.79;49.32
60676;BME280;46716;38.014;-7.874;2022-08-19T02:22:27;99754.84;;;20.76;49.50
60676;BME280;46716;38.014;-7.874;2022-08-19T02:24:28;99748.31;;;20.68;49.51
60676;BME280;46716;38.014;-7.874;2022-08-19T02:26:29;99753.66;;;20.68;49.99
60676;BME280;46716;38.014;-7.874;2022-08-19T02:28:30;99765.84;;;20.72;51.71
60676;BME280;46716;38.014;-7.874;2022-08-19T02:30:32;99772.75;;;20.75;52.61
60676;BME280;46716;38.014;-7.874;2022-08-19T02:32:33;99765.53;;;20.66;53.34
60676;BME280;46716;38.014;-7.874;2022-08-19T02:34:34;99762.72;;;20.67;53.96
60676;BME280;46716;38.014;-7.874;2022-08-19T02:36:35;99755.22;;;20.61;54.07
60676;BME280;46716;38.014;-7.874;2022-08-19T02:38:38;99773.44;;;20.77;53.97
60676;BME280;46716;38.014;-7.874;2022-08-19T02:40:40;99753.66;;;20.68;53.32
60676;BME280;46716;38.014;-7.874;2022-08-19T02:42:41;99749.75;;;20.72;53.08
60676;BME280;46716;38.014;-7.874;2022-08-19T02:44:43;99751.28;;;20.75;52.80
60676;BME280;46716;38.014;-7.874;2022-08-19T02:46:46;99772.47;;;20.88;52.83
60676;BME280;46716;38.014;-7.874;2022-08-19T02:48:52;99777.16;;;20.86;52.66
60676;BME280;46716;38.014;-7.874;2022-08-19T02:50:53;99762.72;;;20.77;52.96
60676;BME280;46716;38.014;-7.874;2022-08-19T02:52:57;99757.06;;;20.70;52.91
60676;BME280;46716;38.014;-7.874;2022-08-19T02:54:58;99770.94;;;20.76;52.71
60676;BME280;46716;38.014;-7.874;2022-08-19T02:57:00;99774.84;;;20.71;53.12
60676;BME280;46716;38.014;-7.874;2022-08-19T02:59:01;99761.59;;;20.60;53.14
60676;BME280;46716;38.014;-7.874;2022-08-19T03:01:02;99773.72;;;20.64;53.29
60676;BME280;46716;38.014;-7.874;2022-08-19T03:03:03;99769.03;;;20.56;53.42
60676;BME280;46716;38.014;-7.874;2022-08-19T03:05:06;99777.66;;;20.60;53.34
60676;BME280;46716;38.014;-7.874;2022-08-19T03:07:07;99782.44;;;20.56;53.50
60676;BME280;46716;38.014;-7.874;2022-08-19T03:09:09;99769.75;;;20.49;53.47
60676;BME280;46716;38.014;-7.874;2022-08-19T03:11:15;99773.00;;;20.52;53.22
60676;BME280;46716;38.014;-7.874;2022-08-19T03:13:17;99773.13;;;20.51;53.20
60676;BME280;46716;38.014;-7.874;2022-08-19T03:15:18;99768.91;;;20.48;53.28
60676;BME280;46716;38.014;-7.874;2022-08-19T03:17:19;99763.94;;;20.43;53.26
60676;BME280;46716;38.014;-7.874;2022-08-19T03:19:20;99761.81;;;20.37;53.23
60676;BME280;46716;38.014;-7.874;2022-08-19T03:21:24;99768.16;;;20.36;53.27
60676;BME280;46716;38.014;-7.874;2022-08-19T03:23:26;99775.66;;;20.42;53.01
60676;BME280;46716;38.014;-7.874;2022-08-19T03:25:27;99767.16;;;20.27;52.94
60676;BME280;46716;38.014;-7.874;2022-08-19T03:27:28;99776.47;;;20.33;52.58
60676;BME280;46716;38.014;-7.874;2022-08-19T03:29:32;99776.06;;;20.28;52.60
60676;BME280;46716;38.014;-7.874;2022-08-19T03:31:33;99767.72;;;20.21;52.59
60676;BME280;46716;38.014;-7.874;2022-08-19T03:33:34;99785.06;;;20.27;52.66
60676;BME280;46716;38.014;-7.874;2022-08-19T03:35:35;99775.88;;;20.19;52.45
60676;BME280;46716;38.014;-7.874;2022-08-19T03:37:39;99781.44;;;20.28;52.77
60676;BME280;46716;38.014;-7.874;2022-08-19T03:39:41;99786.34;;;20.22;52.65
60676;BME280;46716;38.014;-7.874;2022-08-19T03:41:44;99795.09;;;20.25;52.80
60676;BME280;46716;38.014;-7.874;2022-08-19T03:43:46;99772.19;;;20.11;52.77
60676;BME280;46716;38.014;-7.874;2022-08-19T03:45:47;99781.50;;;20.16;52.54
60676;BME280;46716;38.014;-7.874;2022-08-19T03:47:49;99783.03;;;20.09;52.59
60676;BME280;46716;38.014;-7.874;2022-08-19T03:49:50;99789.97;;;20.12;52.28
60676;BME280;46716;38.014;-7.874;2022-08-19T03:51:51;99786.59;;;20.09;51.92
60676;BME280;46716;38.014;-7.874;2022-08-19T03:53:53;99789.69;;;20.15;51.89
60676;BME280;46716;38.014;-7.874;2022-08-19T03:55:55;99782.91;;;20.11;52.15
60676;BME280;46716;38.014;-7.874;2022-08-19T03:57:56;99793.22;;;20.15;52.21
60676;BME280;46716;38.014;-7.874;2022-08-19T03:59:57;99783.03;;;20.09;52.33
60676;BME280;46716;38.014;-7.874;2022-08-19T04:02:00;99802.00;;;20.17;52.13
60676;BME280;46716;38.014;-7.874;2022-08-19T04:04:02;99794.75;;;20.08;52.26
60676;BME280;46716;38.014;-7.874;2022-08-19T04:06:30;99801.41;;;20.14;52.57
60676;BME280;46716;38.014;-7.874;2022-08-19T04:08:31;99808.31;;;20.16;52.78
60676;BME280;46716;38.014;-7.874;2022-08-19T04:10:36;99787.84;;;20.05;52.68
60676;BME280;46716;38.014;-7.874;2022-08-19T04:12:37;99790.03;;;20.00;52.79
60676;BME280;46716;38.014;-7.874;2022-08-19T04:14:39;99812.97;;;20.14;53.05
60676;BME280;46716;38.014;-7.874;2022-08-19T04:16:41;99787.25;;;20.02;53.25
60676;BME280;46716;38.014;-7.874;2022-08-19T04:18:43;99818.34;;;20.14;53.51
60676;BME280;46716;38.014;-7.874;2022-08-19T04:20:46;99787.47;;;19.99;53.79
60676;BME280;46716;38.014;-7.874;2022-08-19T04:22:48;99789.59;;;19.95;53.76
60676;BME280;46716;38.014;-7.874;2022-08-19T04:24:48;99798.19;;;19.99;53.82
60676;BME280;46716;38.014;-7.874;2022-08-19T04:26:50;99791.28;;;19.96;54.18
60676;BME280;46716;38.014;-7.874;2022-08-19T04:28:52;99807.69;;;20.03;54.02
60676;BME280;46716;38.014;-7.874;2022-08-19T04:30:54;99803.50;;;20.10;54.14
60676;BME280;46716;38.014;-7.874;2022-08-19T04:32:55;99798.13;;;20.10;53.98
60676;BME280;46716;38.014;-7.874;2022-08-19T04:34:56;99810.31;;;20.24;53.95
60676;BME280;46716;38.014;-7.874;2022-08-19T04:36:59;99801.41;;;20.24;53.96
60676;BME280;46716;38.014;-7.874;2022-08-19T04:39:05;99805.41;;;20.29;54.17
60676;BME280;46716;38.014;-7.874;2022-08-19T04:41:06;99797.78;;;20.25;53.83
60676;BME280;46716;38.014;-7.874;2022-08-19T04:43:26;99813.59;;;20.28;53.72
60676;BME280;46716;38.014;-7.874;2022-08-19T04:45:27;99795.50;;;20.20;53.65
60676;BME280;46716;38.014;-7.874;2022-08-19T04:47:27;99812.59;;;20.29;53.58
60676;BME280;46716;38.014;-7.874;2022-08-19T04:49:28;99805.97;;;20.23;53.67
60676;BME280;46716;38.014;-7.874;2022-08-19T04:51:32;99821.63;;;20.28;53.96
60676;BME280;46716;38.014;-7.874;2022-08-19T04:53:34;99813.41;;;20.19;53.83
60676;BME280;46716;38.014;-7.874;2022-08-19T04:55:39;99831.19;;;20.20;54.11
60676;BME280;46716;38.014;-7.874;2022-08-19T04:57:41;99824.53;;;20.15;54.12
60676;BME280;46716;38.014;-7.874;2022-08-19T04:59:42;99827.34;;;20.13;54.35
60676;BME280;46716;38.014;-7.874;2022-08-19T05:01:43;99830.03;;;20.13;54.18
60676;BME280;46716;38.014;-7.874;2022-08-19T05:03:44;99824.09;;;20.09;54.36
60676;BME280;46716;38.014;-7.874;2022-08-19T05:05:46;99820.50;;;19.99;54.46
60676;BME280;46716;38.014;-7.874;2022-08-19T05:07:49;99822.84;;;19.92;54.64
60676;BME280;46716;38.014;-7.874;2022-08-19T05:09:49;99819.59;;;19.89;54.69
60676;BME280;46716;38.014;-7.874;2022-08-19T05:11:50;99843.03;;;19.96;54.86
60676;BME280;46716;38.014;-7.874;2022-08-19T05:13:54;99823.09;;;19.89;54.67
60676;BME280;46716;38.014;-7.874;2022-08-19T05:15:57;99828.88;;;19.84;54.56
60676;BME280;46716;38.014;-7.874;2022-08-19T05:17:58;99834.50;;;19.81;54.54
60676;BME280;46716;38.014;-7.874;2022-08-19T05:20:17;99817.66;;;19.69;54.39
60676;BME280;46716;38.014;-7.874;2022-08-19T05:22:57;99843.38;;;19.82;54.16
60676;BME280;46716;38.014;-7.874;2022-08-19T05:24:58;99829.81;;;19.74;54.19
60676;BME280;46716;38.014;-7.874;2022-08-19T05:26:59;99833.00;;;19.67;54.18
60676;BME280;46716;38.014;-7.874;2022-08-19T05:29:00;99851.94;;;19.76;53.98
60676;BME280;46716;38.014;-7.874;2022-08-19T05:31:01;99834.00;;;19.66;53.68
60676;BME280;46716;38.014;-7.874;2022-08-19T05:33:02;99834.69;;;19.68;53.35
60676;BME280;46716;38.014;-7.874;2022-08-19T05:35:04;99832.28;;;19.65;53.30
60676;BME280;46716;38.014;-7.874;2022-08-19T05:37:07;99852.66;;;19.78;53.44
60676;BME280;46716;38.014;-7.874;2022-08-19T05:39:13;99848.94;;;19.69;53.47
60676;BME280;46716;38.014;-7.874;2022-08-19T05:41:16;99849.19;;;19.66;53.34
60676;BME280;46716;38.014;-7.874;2022-08-19T05:43:17;99856.50;;;19.64;53.12
60676;BME280;46716;38.014;-7.874;2022-08-19T05:45:18;99869.50;;;19.68;52.67
60676;BME280;46716;38.014;-7.874;2022-08-19T05:47:20;99857.31;;;19.54;52.27
60676;BME280;46716;38.014;-7.874;2022-08-19T05:49:22;99873.44;;;19.64;52.42
60676;BME280;46716;38.014;-7.874;2022-08-19T05:51:24;99870.31;;;19.59;52.11
60676;BME280;46716;38.014;-7.874;2022-08-19T05:53:25;99880.03;;;19.60;51.87
60676;BME280;46716;38.014;-7.874;2022-08-19T05:55:26;99877.63;;;19.57;51.98
60676;BME280;46716;38.014;-7.874;2022-08-19T05:57:27;99876.06;;;19.54;51.99
60676;BME280;46716;38.014;-7.874;2022-08-19T05:59:29;99881.66;;;19.51;51.85
60676;BME280;46716;38.014;-7.874;2022-08-19T06:01:30;99894.41;;;19.59;52.05
60676;BME280;46716;38.014;-7.874;2022-08-19T06:03:35;99884.34;;;19.51;52.03
60676;BME280;46716;38.014;-7.874;2022-08-19T06:05:37;99903.63;;;19.66;51.64
60676;BME280;46716;38.014;-7.874;2022-08-19T06:07:40;99916.34;;;19.74;51.91
60676;BME280;46716;38.014;-7.874;2022-08-19T06:09:41;99899.28;;;19.54;52.59
60676;BME280;46716;38.014;-7.874;2022-08-19T06:11:51;99891.66;;;19.49;52.32
60676;BME280;46716;38.014;-7.874;2022-08-19T06:13:55;99901.16;;;19.42;52.41
60676;BME280;46716;38.014;-7.874;2022-08-19T06:15:56;99918.09;;;19.42;52.17
60676;BME280;46716;38.014;-7.874;2022-08-19T06:17:57;99897.69;;;19.30;52.07
60676;BME280;46716;38.014;-7.874;2022-08-19T06:19:58;99901.09;;;19.32;51.34
60676;BME280;46716;38.014;-7.874;2022-08-19T06:22:00;99903.28;;;19.38;50.17
60676;BME280;46716;38.014;-7.874;2022-08-19T06:24:01;99893.00;;;19.43;49.70
60676;BME280;46716;38.014;-7.874;2022-08-19T06:26:02;99917.28;;;19.63;48.99
60676;BME280;46716;38.014;-7.874;2022-08-19T06:28:03;99907.00;;;19.68;48.16
60676;BME280;46716;38.014;-7.874;2022-08-19T06:30:05;99894.47;;;19.69;48.11
60676;BME280;46716;38.014;-7.874;2022-08-19T06:32:06;99915.56;;;19.83;47.48
60676;BME280;46716;38.014;-7.874;2022-08-19T06:34:07;99900.09;;;19.87;47.55
60676;BME280;46716;38.014;-7.874;2022-08-19T06:36:16;99917.16;;;20.07;47.28
60676;BME280;46716;38.014;-7.874;2022-08-19T06:38:17;99905.63;;;20.07;47.39
60676;BME280;46716;38.014;-7.874;2022-08-19T06:40:18;99913.88;;;20.25;47.15
60676;BME280;46716;38.014;-7.874;2022-08-19T06:42:19;99898.91;;;20.22;47.11
60676;BME280;46716;38.014;-7.874;2022-08-19T06:44:22;99915.91;;;20.43;46.79
60676;BME280;46716;38.014;-7.874;2022-08-19T06:46:23;99914.28;;;20.52;46.63
60676;BME280;46716;38.014;-7.874;2022-08-19T06:48:24;99929.34;;;20.74;46.48
60676;BME280;46716;38.014;-7.874;2022-08-19T06:50:25;99925.03;;;20.93;46.17
60676;BME280;46716;38.014;-7.874;2022-08-19T06:52:26;99924.06;;;21.04;46.05
60676;BME280;46716;38.014;-7.874;2022-08-19T06:54:28;99905.00;;;21.07;45.48
60676;BME280;46716;38.014;-7.874;2022-08-19T06:56:31;99924.53;;;21.29;45.30
60676;BME280;46716;38.014;-7.874;2022-08-19T06:58:35;99918.19;;;21.40;44.88
60676;BME280;46716;38.014;-7.874;2022-08-19T07:00:37;99933.16;;;21.62;44.58
60676;BME280;46716;38.014;-7.874;2022-08-19T07:02:38;99922.53;;;21.70;44.46
60676;BME280;46716;38.014;-7.874;2022-08-19T07:04:39;99930.03;;;21.86;44.25
60676;BME280;46716;38.014;-7.874;2022-08-19T07:06:40;99940.78;;;22.06;44.08
60676;BME280;46716;38.014;-7.874;2022-08-19T07:08:41;99924.47;;;22.18;44.06
60676;BME280;46716;38.014;-7.874;2022-08-19T07:10:44;99925.13;;;22.30;43.70
60676;BME280;46716;38.014;-7.874;2022-08-19T07:12:45;99923.97;;;22.42;43.64
60676;BME280;46716;38.014;-7.874;2022-08-19T07:14:46;99925.78;;;22.52;43.65
60676;BME280;46716;38.014;-7.874;2022-08-19T07:16:51;99917.13;;;22.58;43.42
60676;BME280;46716;38.014;-7.874;2022-08-19T07:18:52;99920.03;;;22.74;42.92
60676;BME280;46716;38.014;-7.874;2022-08-19T07:21:03;99928.88;;;22.85;42.51
60676;BME280;46716;38.014;-7.874;2022-08-19T07:23:04;99936.56;;;23.08;42.36
60676;BME280;46716;38.014;-7.874;2022-08-19T07:25:08;99936.75;;;23.24;41.95
60676;BME280;46716;38.014;-7.874;2022-08-19T07:27:09;99930.59;;;23.32;41.87
60676;BME280;46716;38.014;-7.874;2022-08-19T07:29:11;99930.22;;;23.45;41.32
60676;BME280;46716;38.014;-7.874;2022-08-19T07:31:14;99936.09;;;23.59;41.51
60676;BME280;46716;38.014;-7.874;2022-08-19T07:33:16;99929.06;;;23.66;41.54
60676;BME280;46716;38.014;-7.874;2022-08-19T07:35:18;99917.59;;;23.64;41.43
60676;BME280;46716;38.014;-7.874;2022-08-19T07:37:20;99926.28;;;23.76;41.03
60676;BME280;46716;38.014;-7.874;2022-08-19T07:39:27;99936.81;;;23.87;41.12
60676;BME280;46716;38.014;-7.874;2022-08-19T07:41:30;99945.50;;;23.99;40.45
60676;BME280;46716;38.014;-7.874;2022-08-19T07:43:32;99933.06;;;24.07;40.38
60676;BME280;46716;38.014;-7.874;2022-08-19T07:45:33;99957.19;;;24.27;40.47
60676;BME280;46716;38.014;-7.874;2022-08-19T07:47:34;99938.66;;;24.32;39.47
60676;BME280;46716;38.014;-7.874;2022-08-19T07:49:35;99941.59;;;24.47;39.58
60676;BME280;46716;38.014;-7.874;2022-08-19T07:51:36;99957.41;;;24.68;38.63
60676;BME280;46716;38.014;-7.874;2022-08-19T07:53:37;99964.88;;;24.83;38.08
60676;BME280;46716;38.014;-7.874;2022-08-19T07:55:38;99944.81;;;24.85;37.52
60676;BME280;46716;38.014;-7.874;2022-08-19T07:57:39;99958.94;;;25.06;37.48
60676;BME280;46716;38.014;-7.874;2022-08-19T07:59:40;99964.50;;;25.21;36.84
60676;BME280;46716;38.014;-7.874;2022-08-19T08:01:41;99946.13;;;25.33;36.02
60676;BME280;46716;38.014;-7.874;2022-08-19T08:03:42;99927.91;;;25.35;35.91
60676;BME280;46716;38.014;-7.874;2022-08-19T08:06:02;99936.34;;;25.57;35.28
60676;BME280;46716;38.014;-7.874;2022-08-19T08:08:21;99955.16;;;25.83;35.18
60676;BME280;46716;38.014;-7.874;2022-08-19T08:10:42;99954.13;;;26.09;34.90
60676;BME280;46716;38.014;-7.874;2022-08-19T08:12:43;99953.56;;;26.22;34.58
60676;BME280;46716;38.014;-7.874;2022-08-19T08:14:53;99946.78;;;26.43;33.83
60676;BME280;46716;38.014;-7.874;2022-08-19T08:16:54;99946.25;;;26.56;33.20
60676;BME280;46716;38.014;-7.874;2022-08-19T08:18:55;99951.44;;;26.74;33.14
60676;BME280;46716;38.014;-7.874;2022-08-19T08:20:57;99937.84;;;26.83;33.19
60676;BME280;46716;38.014;-7.874;2022-08-19T08:22:59;99958.41;;;27.09;32.92
60676;BME280;46716;38.014;-7.874;2022-08-19T08:25:32;99956.03;;;27.37;32.55
60676;BME280;46716;38.014;-7.874;2022-08-19T08:27:38;99949.53;;;27.47;33.17
60676;BME280;46716;38.014;-7.874;2022-08-19T08:29:40;99953.78;;;27.73;32.71
60676;BME280;46716;38.014;-7.874;2022-08-19T08:31:43;99958.66;;;27.93;31.45
60676;BME280;46716;38.014;-7.874;2022-08-19T08:33:44;99944.13;;;28.09;31.67
60676;BME280;46716;38.014;-7.874;2022-08-19T08:35:46;99959.03;;;28.28;32.07
60676;BME280;46716;38.014;-7.874;2022-08-19T08:37:48;99956.72;;;28.55;30.94
60676;BME280;46716;38.014;-7.874;2022-08-19T08:39:50;99947.06;;;28.68;30.58
60676;BME280;46716;38.014;-7.874;2022-08-19T08:43:53;99958.91;;;29.12;30.34
60676;BME280;46716;38.014;-7.874;2022-08-19T08:46:09;99959.44;;;29.22;30.09
60676;BME280;46716;38.014;-7.874;2022-08-19T08:48:19;99941.72;;;29.26;28.96
60676;BME280;46716;38.014;-7.874;2022-08-19T08:50:27;99941.69;;;29.48;30.22
60676;BME280;46716;38.014;-7.874;2022-08-19T08:52:39;99949.72;;;29.72;28.86
60676;BME280;46716;38.014;-7.874;2022-08-19T08:54:45;99933.75;;;29.97;28.06
60676;BME280;46716;38.014;-7.874;2022-08-19T08:56:47;99945.47;;;30.20;28.43
60676;BME280;46716;38.014;-7.874;2022-08-19T08:59:09;99933.56;;;30.21;26.83
60676;BME280;46716;38.014;-7.874;2022-08-19T09:01:11;99952.09;;;30.39;26.94
60676;BME280;46716;38.014;-7.874;2022-08-19T09:03:19;99948.63;;;30.59;26.95
60676;BME280;46716;38.014;-7.874;2022-08-19T09:05:22;99943.50;;;30.77;26.99
60676;BME280;46716;38.014;-7.874;2022-08-19T09:07:58;99952.19;;;31.01;25.93
60676;BME280;46716;38.014;-7.874;2022-08-19T09:10:31;99953.94;;;31.29;26.29
60676;BME280;46716;38.014;-7.874;2022-08-19T09:15:03;99953.41;;;31.75;25.04
60676;BME280;46716;38.014;-7.874;2022-08-19T09:17:04;99939.72;;;31.88;25.35
60676;BME280;46716;38.014;-7.874;2022-08-19T09:19:09;99962.22;;;32.11;24.20
60676;BME280;46716;38.014;-7.874;2022-08-19T09:21:11;99955.25;;;32.22;23.83
60676;BME280;46716;38.014;-7.874;2022-08-19T09:23:13;99958.41;;;32.32;23.43
60676;BME280;46716;38.014;-7.874;2022-08-19T09:25:19;99950.38;;;32.44;24.85
60676;BME280;46716;38.014;-7.874;2022-08-19T09:27:23;99956.81;;;32.77;24.95
60676;BME280;46716;38.014;-7.874;2022-08-19T09:29:24;99955.03;;;33.03;23.59
60676;BME280;46716;38.014;-7.874;2022-08-19T09:31:27;99949.28;;;33.18;23.87
60676;BME280;46716;38.014;-7.874;2022-08-19T09:33:29;99944.34;;;33.34;22.94
60676;BME280;46716;38.014;-7.874;2022-08-19T09:35:32;99948.50;;;33.43;22.61
60676;BME280;46716;38.014;-7.874;2022-08-19T09:37:33;99949.69;;;33.54;22.24
60676;BME280;46716;38.014;-7.874;2022-08-19T09:39:34;99951.34;;;33.55;22.28
60676;BME280;46716;38.014;-7.874;2022-08-19T09:41:35;99956.56;;;33.63;22.70
60676;BME280;46716;38.014;-7.874;2022-08-19T09:43:36;99954.94;;;33.81;22.23
60676;BME280;46716;38.014;-7.874;2022-08-19T09:45:37;99944.94;;;33.93;23.39
60676;BME280;46716;38.014;-7.874;2022-08-19T09:47:38;99967.63;;;34.26;20.62
60676;BME280;46716;38.014;-7.874;2022-08-19T09:49:40;99953.78;;;34.21;21.13
60676;BME280;46716;38.014;-7.874;2022-08-19T09:51:40;99976.25;;;34.30;21.31
60676;BME280;46716;38.014;-7.874;2022-08-19T09:53:43;99974.03;;;34.39;21.13
60676;BME280;46716;38.014;-7.874;2022-08-19T09:55:45;99967.94;;;34.37;20.25
60676;BME280;46716;38.014;-7.874;2022-08-19T09:57:53;99972.13;;;34.21;20.39
60676;BME280;46716;38.014;-7.874;2022-08-19T09:59:54;99982.72;;;34.36;21.51
60676;BME280;46716;38.014;-7.874;2022-08-19T10:01:55;99982.88;;;34.60;21.47
60676;BME280;46716;38.014;-7.874;2022-08-19T10:03:59;99984.09;;;34.82;20.74
60676;BME280;46716;38.014;-7.874;2022-08-19T10:06:02;99969.84;;;34.92;20.68
60676;BME280;46716;38.014;-7.874;2022-08-19T10:08:03;99977.69;;;35.07;20.46
60676;BME280;46716;38.014;-7.874;2022-08-19T10:10:05;99979.25;;;35.15;20.45
60676;BME280;46716;38.014;-7.874;2022-08-19T10:12:08;99977.34;;;35.35;20.37
60676;BME280;46716;38.014;-7.874;2022-08-19T10:14:09;99969.34;;;35.33;20.00
60676;BME280;46716;38.014;-7.874;2022-08-19T10:16:14;99974.31;;;35.05;20.07
60676;BME280;46716;38.014;-7.874;2022-08-19T10:18:21;99965.63;;;35.27;20.01
60676;BME280;46716;38.014;-7.874;2022-08-19T10:20:22;99979.16;;;35.53;20.47
60676;BME280;46716;38.014;-7.874;2022-08-19T10:22:23;99962.94;;;35.63;21.32
60676;BME280;46716;38.014;-7.874;2022-08-19T10:24:24;99977.19;;;35.96;20.66
60676;BME280;46716;38.014;-7.874;2022-08-19T10:26:33;99984.03;;;36.17;20.09
60676;BME280;46716;38.014;-7.874;2022-08-19T10:28:35;99966.25;;;36.20;18.18
60676;BME280;46716;38.014;-7.874;2022-08-19T10:30:43;99973.66;;;36.31;18.26
60676;BME280;46716;38.014;-7.874;2022-08-19T10:32:47;99966.47;;;36.18;18.94
60676;BME280;46716;38.014;-7.874;2022-08-19T10:34:48;99975.56;;;36.31;18.21
60676;BME280;46716;38.014;-7.874;2022-08-19T10:36:50;99977.59;;;36.24;18.59
60676;BME280;46716;38.014;-7.874;2022-08-19T10:38:53;99970.06;;;36.31;19.15
60676;BME280;46716;38.014;-7.874;2022-08-19T10:40:57;99958.34;;;36.36;18.78
60676;BME280;46716;38.014;-7.874;2022-08-19T10:42:58;99973.84;;;36.54;18.61
60676;BME280;46716;38.014;-7.874;2022-08-19T10:44:59;99949.66;;;36.68;18.70
60676;BME280;46716;38.014;-7.874;2022-08-19T10:47:01;99951.22;;;36.76;18.13
60676;BME280;46716;38.014;-7.874;2022-08-19T10:49:04;99960.53;;;36.87;18.24